createdAt,value
2023-04-08T00:01:05.066Z,10.50
2023-04-08T00:03:32.582Z,10.40
2023-04-08T00:06:02.612Z,10.40
2023-04-08T00:08:29.846Z,10.30
2023-04-08T00:10:57.052Z,10.20
2023-04-08T00:13:24.415Z,10.20
2023-04-08T00:15:51.687Z,10.10
2023-04-08T00:18:18.914Z,10.10
2023-04-08T00:20:46.468Z,10.00
2023-04-08T00:23:13.780Z,10.00
2023-04-08T00:25:41.126Z,9.90
2023-04-08T00:28:09.097Z,9.80
2023-04-08T00:30:36.456Z,9.80
2023-04-08T00:33:04.433Z,9.80
2023-04-08T00:35:31.880Z,9.70
2023-04-08T00:37:59.154Z,9.70
2023-04-08T00:40:26.359Z,9.70
2023-04-08T00:42:53.894Z,9.60
2023-04-08T00:45:21.137Z,9.60
2023-04-08T00:47:52.495Z,9.60
2023-04-08T00:50:20.394Z,9.50
2023-04-08T00:52:47.706Z,9.50
2023-04-08T00:55:15.010Z,9.50
2023-04-08T00:57:42.551Z,9.40
2023-04-08T01:00:10.710Z,9.40
2023-04-08T01:03:08.502Z,9.40
2023-04-08T01:05:39.453Z,9.30
2023-04-08T01:08:08.413Z,9.40
2023-04-08T01:10:38.993Z,9.30
2023-04-08T01:13:10.138Z,9.30
2023-04-08T01:15:41.277Z,9.30
2023-04-08T01:18:15.709Z,9.30
2023-04-08T01:20:44.232Z,9.30
2023-04-08T01:23:54.544Z,9.20
2023-04-08T01:26:24.453Z,9.20
2023-04-08T01:28:56.454Z,9.20
2023-04-08T01:31:26.489Z,9.20
2023-04-08T01:33:55.370Z,9.20
2023-04-08T01:36:24.625Z,9.30
2023-04-08T01:38:52.148Z,9.30
2023-04-08T01:41:21.222Z,9.20
2023-04-08T01:43:49.870Z,9.20
2023-04-08T01:46:18.074Z,9.20
2023-04-08T01:48:46.370Z,9.10
2023-04-08T01:51:14.081Z,9.10
2023-04-08T01:53:41.733Z,9.00
2023-04-08T01:56:14.009Z,9.00
2023-04-08T01:58:47.552Z,8.90
2023-04-08T02:01:21.005Z,8.90
2023-04-08T02:03:53.422Z,8.90
2023-04-08T02:06:20.691Z,8.90
2023-04-08T02:08:48.125Z,8.80
2023-04-08T02:11:15.724Z,8.80
2023-04-08T02:13:42.874Z,8.80
2023-04-08T02:16:19.597Z,8.70
2023-04-08T02:18:59.366Z,8.60
2023-04-08T02:21:34.227Z,8.60
2023-04-08T02:24:06.273Z,8.50
2023-04-08T02:26:36.164Z,8.40
2023-04-08T02:29:05.773Z,8.40
2023-04-08T02:31:34.354Z,8.30
2023-04-08T02:34:01.976Z,8.30
2023-04-08T02:36:33.098Z,8.20
2023-04-08T02:39:06.369Z,8.20
2023-04-08T02:41:33.626Z,8.20
2023-04-08T02:44:00.785Z,8.20
2023-04-08T02:46:27.992Z,8.10
2023-04-08T02:48:55.141Z,8.10
2023-04-08T02:51:22.295Z,8.10
2023-04-08T02:53:49.491Z,8.10
2023-04-08T02:56:16.740Z,8.00
2023-04-08T02:58:44.039Z,8.00
2023-04-08T03:01:11.599Z,8.00
2023-04-08T03:03:39.388Z,7.90
2023-04-08T03:06:06.785Z,7.90
2023-04-08T03:08:34.046Z,7.90
2023-04-08T03:11:01.216Z,7.80
2023-04-08T03:13:29.751Z,7.70
2023-04-08T03:15:57.133Z,7.70
2023-04-08T03:18:24.522Z,7.70
2023-04-08T03:20:51.801Z,7.70
2023-04-08T03:23:18.965Z,7.60
2023-04-08T03:25:46.796Z,7.50
2023-04-08T03:28:14.107Z,7.50
2023-04-08T03:30:41.467Z,7.50
2023-04-08T03:33:08.859Z,7.40
2023-04-08T03:35:37.375Z,7.40
2023-04-08T03:38:05.084Z,7.40
2023-04-08T03:40:32.334Z,7.40
2023-04-08T03:42:59.588Z,7.30
2023-04-08T03:45:26.796Z,7.30
2023-04-08T03:47:54.182Z,7.30
2023-04-08T03:50:21.584Z,7.30
2023-04-08T03:52:48.862Z,7.30
2023-04-08T03:55:16.124Z,7.40
2023-04-08T03:57:45.164Z,7.40
2023-04-08T04:00:12.926Z,7.40
2023-04-08T04:02:40.465Z,7.50
2023-04-08T04:05:08.481Z,7.60
2023-04-08T04:07:35.662Z,7.60
2023-04-08T04:10:02.954Z,7.70
2023-04-08T04:12:30.407Z,7.70
2023-04-08T04:14:57.649Z,7.80
2023-04-08T04:17:25.031Z,7.90
2023-04-08T04:19:52.909Z,7.90
2023-04-08T04:22:20.131Z,7.90
2023-04-08T04:24:48.598Z,7.90
2023-04-08T04:27:17.512Z,7.90
2023-04-08T04:29:44.724Z,7.90
2023-04-08T04:32:11.923Z,7.80
2023-04-08T04:34:39.086Z,7.70
2023-04-08T04:37:06.322Z,7.70
2023-04-08T04:39:33.549Z,7.60
2023-04-08T04:42:00.837Z,7.50
2023-04-08T04:44:28.066Z,7.50
2023-04-08T04:46:55.350Z,7.40
2023-04-08T04:49:22.804Z,7.40
2023-04-08T04:51:50.000Z,7.30
2023-04-08T04:54:17.195Z,7.30
2023-04-08T04:56:44.422Z,7.20
2023-04-08T04:59:11.626Z,7.20
2023-04-08T05:01:41.008Z,7.20
2023-04-08T05:04:08.306Z,7.20
2023-04-08T05:06:35.606Z,7.20
2023-04-08T05:09:02.960Z,7.10
2023-04-08T05:11:30.775Z,7.10
2023-04-08T05:13:58.006Z,7.10
2023-04-08T05:16:25.330Z,7.10
2023-04-08T05:18:52.833Z,7.10
2023-04-08T05:21:20.419Z,7.10
2023-04-08T05:23:47.753Z,7.20
2023-04-08T05:26:16.341Z,7.20
2023-04-08T05:28:43.780Z,7.20
2023-04-08T05:31:11.947Z,7.20
2023-04-08T05:33:39.214Z,7.20
2023-04-08T05:36:06.685Z,7.20
2023-04-08T05:38:34.464Z,7.30
2023-04-08T05:41:01.657Z,7.40
2023-04-08T05:43:28.863Z,7.40
2023-04-08T05:45:56.229Z,7.40
2023-04-08T05:48:23.430Z,7.50
2023-04-08T05:50:50.870Z,7.50
2023-04-08T05:53:18.084Z,7.60
2023-04-08T05:55:45.332Z,7.60
2023-04-08T05:58:12.478Z,7.70
2023-04-08T06:00:39.769Z,7.70
2023-04-08T06:03:07.226Z,7.80
2023-04-08T06:05:34.585Z,7.90
2023-04-08T06:08:01.935Z,7.90
2023-04-08T06:10:29.160Z,8.00
2023-04-08T06:12:56.300Z,8.00
2023-04-08T06:15:23.468Z,8.10
2023-04-08T06:17:50.783Z,8.20
2023-04-08T06:20:18.104Z,8.20
2023-04-08T06:22:45.257Z,8.30
2023-04-08T06:25:12.480Z,8.40
2023-04-08T06:27:39.647Z,8.50
2023-04-08T06:30:07.672Z,8.60
2023-04-08T06:32:34.914Z,8.60
2023-04-08T06:35:02.228Z,8.70
2023-04-08T06:37:29.453Z,8.80
2023-04-08T06:39:56.701Z,8.90
2023-04-08T06:42:23.910Z,9.00
2023-04-08T06:45:08.618Z,9.00
2023-04-08T06:47:35.875Z,9.00
2023-04-08T06:50:03.243Z,9.10
2023-04-08T06:52:30.671Z,9.20
2023-04-08T06:54:57.845Z,9.30
2023-04-08T06:57:25.004Z,9.40
2023-04-08T06:59:53.407Z,9.50
2023-04-08T07:02:22.158Z,9.50
2023-04-08T07:04:49.634Z,9.60
2023-04-08T07:07:16.751Z,9.70
2023-04-08T07:09:45.970Z,9.90
2023-04-08T07:12:13.513Z,10.00
2023-04-08T07:14:41.000Z,10.10
2023-04-08T07:17:08.432Z,10.20
2023-04-08T07:19:36.043Z,10.30
2023-04-08T07:22:03.340Z,10.40
2023-04-08T07:24:30.513Z,10.40
2023-04-08T07:26:58.219Z,10.50
2023-04-08T07:29:25.403Z,10.60
2023-04-08T07:31:52.572Z,10.70
2023-04-08T07:34:19.844Z,10.80
2023-04-08T07:36:47.317Z,10.90
2023-04-08T07:39:14.534Z,11.00
2023-04-08T07:41:41.774Z,11.10
2023-04-08T07:44:08.996Z,11.20
2023-04-08T07:46:39.478Z,11.30
2023-04-08T07:49:07.028Z,11.40
2023-04-08T07:51:34.743Z,11.50
2023-04-08T07:54:02.010Z,11.60
2023-04-08T07:56:29.250Z,11.70
2023-04-08T07:58:56.797Z,11.80
2023-04-08T08:01:24.325Z,11.90
2023-04-08T08:03:53.491Z,12.10
2023-04-08T08:08:49.434Z,12.30
2023-04-08T08:11:16.606Z,12.40
2023-04-08T08:13:44.099Z,12.50
2023-04-08T08:16:12.094Z,12.60
2023-04-08T08:18:41.279Z,12.70
2023-04-08T08:21:09.032Z,12.80
2023-04-08T08:23:37.379Z,12.90
2023-04-08T08:26:11.736Z,13.00
2023-04-08T08:28:39.532Z,13.00
2023-04-08T08:31:07.048Z,13.10
2023-04-08T08:33:34.329Z,13.30
2023-04-08T08:36:01.926Z,13.30
2023-04-08T08:38:29.199Z,13.50
2023-04-08T08:40:58.416Z,13.60
2023-04-08T08:43:26.296Z,13.80
2023-04-08T08:45:54.458Z,13.90
2023-04-08T08:48:21.966Z,14.10
2023-04-08T08:50:49.271Z,14.20
2023-04-08T08:53:17.689Z,14.50
2023-04-08T08:56:15.766Z,15.20
2023-04-08T08:58:32.745Z,15.90
2023-04-08T09:00:59.970Z,16.50
2023-04-08T09:03:28.852Z,16.60
2023-04-08T09:05:57.809Z,16.40
2023-04-08T09:08:33.049Z,16.20
2023-04-08T09:11:21.635Z,16.10
2023-04-08T09:13:49.235Z,16.40
2023-04-08T09:16:18.600Z,17.20
2023-04-08T09:18:48.579Z,18.90
2023-04-08T09:21:23.872Z,21.30
2023-04-08T09:23:52.911Z,24.10
2023-04-08T09:26:24.716Z,26.60
2023-04-08T09:29:11.052Z,28.80
2023-04-08T09:31:42.237Z,30.60
2023-04-08T09:34:15.271Z,32.20
2023-04-08T09:36:45.533Z,33.40
2023-04-08T09:39:15.705Z,34.50
2023-04-08T09:41:44.089Z,35.10
2023-04-08T09:44:12.137Z,35.30
2023-04-08T09:47:04.931Z,35.70
2023-04-08T09:49:55.148Z,35.60
2023-04-08T09:52:42.578Z,35.40
2023-04-08T09:55:11.683Z,35.90
2023-04-08T09:57:51.333Z,36.50
2023-04-08T10:00:19.440Z,36.80
2023-04-08T10:03:10.214Z,37.00
2023-04-08T10:05:40.627Z,37.30
2023-04-08T10:08:08.213Z,37.80
2023-04-08T10:10:38.409Z,38.00
2023-04-08T10:13:07.160Z,38.20
2023-04-08T10:15:36.673Z,38.40
2023-04-08T10:18:06.716Z,38.70
2023-04-08T10:20:36.759Z,39.30
2023-04-08T10:23:07.418Z,39.90
2023-04-08T10:25:35.991Z,40.30
2023-04-08T10:28:12.201Z,40.90
2023-04-08T10:30:40.569Z,41.50
2023-04-08T10:33:22.162Z,41.90
2023-04-08T10:35:54.213Z,42.40
2023-04-08T10:38:22.316Z,42.60
2023-04-08T10:40:49.855Z,42.60
2023-04-08T10:43:17.501Z,42.80
2023-04-08T10:45:48.634Z,43.30
2023-04-08T10:48:22.642Z,43.70
2023-04-08T10:51:01.051Z,43.90
2023-04-08T10:53:32.172Z,44.10
2023-04-08T10:56:08.504Z,44.40
2023-04-08T10:58:39.003Z,44.60
2023-04-08T11:01:07.591Z,44.60
2023-04-08T11:03:37.059Z,44.50
2023-04-08T11:06:05.372Z,44.50
2023-04-08T11:08:33.792Z,44.60
2023-04-08T11:11:02.098Z,44.70
2023-04-08T11:13:29.612Z,44.70
2023-04-08T11:15:59.020Z,44.80
2023-04-08T11:18:27.310Z,44.80
2023-04-08T11:20:54.832Z,44.60
2023-04-08T11:23:22.905Z,44.30
2023-04-08T11:25:51.425Z,44.30
2023-04-08T11:28:19.481Z,44.10
2023-04-08T11:30:48.261Z,43.80
2023-04-08T11:33:15.645Z,43.70
2023-04-08T11:35:44.106Z,43.50
2023-04-08T11:38:11.900Z,43.50
2023-04-08T11:40:39.618Z,43.40
2023-04-08T11:43:11.111Z,43.10
2023-04-08T11:45:40.325Z,42.70
2023-04-08T11:48:15.346Z,42.80
2023-04-08T11:50:43.862Z,42.80
2023-04-08T11:53:20.947Z,43.00
2023-04-08T11:55:49.214Z,43.00
2023-04-08T11:58:16.838Z,43.10
2023-04-08T12:00:45.542Z,43.30
2023-04-08T12:03:13.558Z,43.10
2023-04-08T12:05:41.307Z,42.90
2023-04-08T12:08:08.566Z,43.20
2023-04-08T12:10:36.046Z,43.50
2023-04-08T12:13:03.231Z,43.60
2023-04-08T12:15:30.724Z,43.70
2023-04-08T12:17:58.006Z,44.00
2023-04-08T12:20:25.316Z,44.00
2023-04-08T12:22:52.643Z,43.90
2023-04-08T12:25:20.125Z,44.10
2023-04-08T12:27:47.595Z,44.20
2023-04-08T12:30:16.360Z,44.10
2023-04-08T12:32:45.936Z,43.90
2023-04-08T12:35:13.688Z,43.50
2023-04-08T12:37:41.012Z,43.40
2023-04-08T12:40:08.769Z,43.40
2023-04-08T12:42:36.097Z,43.50
2023-04-08T12:45:03.611Z,43.40
2023-04-08T12:47:30.931Z,43.20
2023-04-08T12:49:58.171Z,43.30
2023-04-08T12:52:25.312Z,43.50
2023-04-08T12:54:52.532Z,43.60
2023-04-08T12:57:19.764Z,43.60
2023-04-08T12:59:47.596Z,43.60
2023-04-08T13:02:14.803Z,43.50
2023-04-08T13:04:42.001Z,43.20
2023-04-08T13:07:09.159Z,42.70
2023-04-08T13:09:36.317Z,41.40
2023-04-08T13:12:03.842Z,40.40
2023-04-08T13:14:31.299Z,38.90
2023-04-08T13:16:58.484Z,37.10
2023-04-08T13:19:26.051Z,35.20
2023-04-08T13:21:53.212Z,33.50
2023-04-08T13:24:20.399Z,31.70
2023-04-08T13:26:47.632Z,30.20
2023-04-08T13:29:14.834Z,29.10
2023-04-08T13:31:42.440Z,28.40
2023-04-08T13:34:09.711Z,28.00
2023-04-08T13:36:36.983Z,27.90
2023-04-08T13:39:04.215Z,27.70
2023-04-08T13:41:31.391Z,27.30
2023-04-08T13:43:58.970Z,26.80
2023-04-08T13:46:26.319Z,26.00
2023-04-08T13:48:53.719Z,25.80
2023-04-08T13:51:21.070Z,25.50
2023-04-08T13:53:48.275Z,25.10
2023-04-08T13:56:15.475Z,24.70
2023-04-08T13:58:42.889Z,24.50
2023-04-08T14:01:11.123Z,24.30
2023-04-08T14:03:38.453Z,24.00
2023-04-08T14:06:05.702Z,23.60
2023-04-08T14:08:32.910Z,23.40
2023-04-08T14:11:00.232Z,23.40
2023-04-08T14:13:28.020Z,23.70
2023-04-08T14:15:58.216Z,24.20
2023-04-08T14:18:26.130Z,24.60
2023-04-08T14:20:53.413Z,24.70
2023-04-08T14:23:21.118Z,24.90
2023-04-08T14:25:48.350Z,24.90
2023-04-08T14:28:15.621Z,24.80
2023-04-08T14:30:42.832Z,24.60
2023-04-08T14:33:10.564Z,24.60
2023-04-08T14:35:40.398Z,24.40
2023-04-08T14:38:07.644Z,24.50
2023-04-08T14:40:36.523Z,24.50
2023-04-08T14:43:05.045Z,24.50
2023-04-08T14:45:33.092Z,24.90
2023-04-08T14:48:00.313Z,25.20
2023-04-08T14:50:27.522Z,25.10
2023-04-08T14:52:54.734Z,24.70
2023-04-08T14:55:22.672Z,24.50
2023-04-08T14:57:49.998Z,24.20
2023-04-08T15:00:17.228Z,24.00
2023-04-08T15:02:44.524Z,23.80
2023-04-08T15:05:11.750Z,23.70
2023-04-08T15:07:38.976Z,23.90
2023-04-08T15:10:06.909Z,24.00
2023-04-08T15:12:34.167Z,23.80
2023-04-08T15:15:01.410Z,23.50
2023-04-08T15:17:28.798Z,23.50
2023-04-08T15:19:56.499Z,23.90
2023-04-08T15:22:23.688Z,24.50
2023-04-08T15:24:51.199Z,25.00
2023-04-08T15:27:19.657Z,25.50
2023-04-08T15:29:47.597Z,25.80
2023-04-08T15:32:14.832Z,25.80
2023-04-08T15:34:42.019Z,25.50
2023-04-08T15:37:09.253Z,25.40
2023-04-08T15:39:36.583Z,25.30
2023-04-08T15:42:03.922Z,25.30
2023-04-08T15:44:32.333Z,25.20
2023-04-08T15:46:59.654Z,25.00
2023-04-08T15:49:26.946Z,24.90
2023-04-08T15:51:54.230Z,25.00
2023-04-08T15:54:21.569Z,24.90
2023-04-08T15:56:48.758Z,24.70
2023-04-08T15:59:15.979Z,24.30
2023-04-08T16:01:43.228Z,23.90
2023-04-08T16:04:11.101Z,23.90
2023-04-08T16:06:38.363Z,24.10
2023-04-08T16:09:06.444Z,24.10
2023-04-08T16:11:34.187Z,24.20
2023-04-08T16:14:01.972Z,24.30
2023-04-08T16:16:29.977Z,24.30
2023-04-08T16:18:57.336Z,24.30
2023-04-08T16:21:24.715Z,24.20
2023-04-08T16:23:52.807Z,24.10
2023-04-08T16:26:21.614Z,24.10
2023-04-08T16:28:49.217Z,24.10
2023-04-08T16:31:20.053Z,24.00
2023-04-08T16:33:47.685Z,23.90
2023-04-08T16:36:15.387Z,23.80
2023-04-08T16:38:42.680Z,23.70
2023-04-08T16:41:10.106Z,23.60
2023-04-08T16:43:37.907Z,23.50
2023-04-08T16:46:18.608Z,23.40
2023-04-08T16:48:46.397Z,23.30
2023-04-08T16:51:13.579Z,23.20
2023-04-08T16:56:16.111Z,22.90
2023-04-08T16:58:43.573Z,22.80
2023-04-08T17:01:11.329Z,22.70
2023-04-08T17:03:38.944Z,22.50
2023-04-08T17:06:11.994Z,22.20
2023-04-08T17:08:43.136Z,21.90
2023-04-08T17:11:14.963Z,21.70
2023-04-08T17:13:43.261Z,21.30
2023-04-08T17:16:15.648Z,20.90
2023-04-08T17:18:43.866Z,20.40
2023-04-08T17:21:12.347Z,20.10
2023-04-08T17:23:39.777Z,19.80
2023-04-08T17:26:10.653Z,19.60
2023-04-08T17:28:37.990Z,19.50
2023-04-08T17:31:05.270Z,19.40
2023-04-08T17:33:33.865Z,19.20
2023-04-08T17:36:01.486Z,19.10
2023-04-08T17:38:28.835Z,18.70
2023-04-08T17:40:56.413Z,18.40
2023-04-08T17:43:23.712Z,18.00
2023-04-08T17:45:51.613Z,17.60
2023-04-08T17:48:18.881Z,17.30
2023-04-08T17:50:46.120Z,16.90
2023-04-08T17:53:13.379Z,16.50
2023-04-08T17:55:40.560Z,16.10
2023-04-08T17:58:07.756Z,15.80
2023-04-08T18:00:34.947Z,15.60
2023-04-08T18:03:02.221Z,15.30
2023-04-08T18:05:30.035Z,15.00
2023-04-08T18:07:58.433Z,14.80
2023-04-08T18:10:25.653Z,14.60
2023-04-08T18:12:57.778Z,14.40
2023-04-08T18:15:34.042Z,14.20
2023-04-08T18:18:01.397Z,13.90
2023-04-08T18:20:28.817Z,13.80
2023-04-08T18:22:56.921Z,13.60
2023-04-08T18:25:24.166Z,13.50
2023-04-08T18:27:51.323Z,13.30
2023-04-08T18:30:18.535Z,13.20
2023-04-08T18:32:45.844Z,13.10
2023-04-08T18:35:13.020Z,13.00
2023-04-08T18:37:40.547Z,12.90
2023-04-08T18:40:08.480Z,12.80
2023-04-08T18:42:35.717Z,12.70
2023-04-08T18:45:02.898Z,12.60
2023-04-08T18:47:30.202Z,12.50
2023-04-08T18:49:57.683Z,12.40
2023-04-08T18:52:24.873Z,12.40
2023-04-08T18:54:52.565Z,12.30
2023-04-08T18:57:20.173Z,12.20
2023-04-08T18:59:48.697Z,12.10
2023-04-08T19:02:16.589Z,12.10
2023-04-08T19:04:43.836Z,12.00
2023-04-08T19:07:12.131Z,11.90
2023-04-08T19:09:39.996Z,11.80
2023-04-08T19:12:07.169Z,11.80
2023-04-08T19:14:34.373Z,11.70
2023-04-08T19:17:01.775Z,11.60
2023-04-08T19:19:28.962Z,11.60
2023-04-08T19:21:56.119Z,11.60
2023-04-08T19:24:23.346Z,11.50
2023-04-08T19:26:51.327Z,11.50
2023-04-08T19:29:19.848Z,11.40
2023-04-08T19:31:47.624Z,11.40
2023-04-08T19:34:14.826Z,11.30
2023-04-08T19:36:42.019Z,11.30
2023-04-08T19:39:09.189Z,11.30
2023-04-08T19:41:36.381Z,11.30
2023-04-08T19:44:03.713Z,11.20
2023-04-08T19:46:31.091Z,11.20
2023-04-08T19:48:58.805Z,11.10
2023-04-08T19:51:27.888Z,11.10
2023-04-08T19:53:56.092Z,11.10
2023-04-08T19:56:23.298Z,11.00
2023-04-08T19:58:50.786Z,10.90
2023-04-08T20:01:18.509Z,10.90
2023-04-08T20:03:50.562Z,10.90
2023-04-08T20:06:19.007Z,10.80
2023-04-08T20:08:46.417Z,10.80
2023-04-08T20:11:13.750Z,10.80
2023-04-08T20:13:41.080Z,10.80
2023-04-08T20:16:08.435Z,10.90
2023-04-08T20:18:35.805Z,10.90
2023-04-08T20:21:03.095Z,11.10
2023-04-08T20:23:30.605Z,11.20
2023-04-08T20:25:58.154Z,11.30
2023-04-08T20:28:25.670Z,11.40
2023-04-08T20:30:54.065Z,11.40
2023-04-08T20:33:21.394Z,11.50
2023-04-08T20:35:50.459Z,11.60
2023-04-08T20:38:17.716Z,11.70
2023-04-08T20:40:45.525Z,11.70
2023-04-08T20:43:12.726Z,11.70
2023-04-08T20:45:40.014Z,11.70
2023-04-08T20:48:07.601Z,11.70
2023-04-08T20:50:35.192Z,11.70
2023-04-08T20:53:02.923Z,11.80
2023-04-08T20:55:30.262Z,11.80
2023-04-08T20:57:57.479Z,11.90
2023-04-08T21:00:24.644Z,11.60
2023-04-08T21:02:52.625Z,11.90
2023-04-08T21:05:19.990Z,12.00
2023-04-08T21:07:47.206Z,12.10
2023-04-08T21:10:14.648Z,12.10
2023-04-08T21:12:41.869Z,12.20
2023-04-08T21:15:09.702Z,12.20
2023-04-08T21:17:37.189Z,12.30
2023-04-08T21:20:05.350Z,12.30
2023-04-08T21:22:32.804Z,12.30
2023-04-08T21:24:59.963Z,12.30
2023-04-08T21:27:28.914Z,12.40
2023-04-08T21:29:56.156Z,12.40
2023-04-08T21:32:23.788Z,12.40
2023-04-08T21:34:54.383Z,12.40
2023-04-08T21:37:22.735Z,12.50
2023-04-08T21:39:50.216Z,12.40
2023-04-08T21:42:17.687Z,12.50
2023-04-08T21:44:44.860Z,12.40
2023-04-08T21:47:12.050Z,12.40
2023-04-08T21:49:39.372Z,12.40
2023-04-08T21:52:06.763Z,12.40
2023-04-08T21:54:34.083Z,12.40
2023-04-08T21:57:01.722Z,12.40
2023-04-08T21:59:28.952Z,12.40
2023-04-08T22:01:56.518Z,12.40
2023-04-08T22:04:23.693Z,12.40
2023-04-08T22:06:51.141Z,12.30
2023-04-08T22:09:19.344Z,12.30
2023-04-08T22:11:46.592Z,12.30
2023-04-08T22:14:15.308Z,12.30
2023-04-08T22:16:42.934Z,12.30
2023-04-08T22:19:10.549Z,12.20
2023-04-08T22:21:37.747Z,12.20
2023-04-08T22:24:05.255Z,12.20
2023-04-08T22:26:32.453Z,12.20
2023-04-08T22:28:59.674Z,12.20
2023-04-08T22:31:27.017Z,12.20
2023-04-08T22:33:54.218Z,12.20
2023-04-08T22:38:49.106Z,12.20
2023-04-08T22:41:18.774Z,12.10
2023-04-08T22:43:46.338Z,12.10
2023-04-08T22:46:18.402Z,12.10
2023-04-08T22:48:46.168Z,12.10
2023-04-08T22:51:13.523Z,12.10
2023-04-08T22:53:41.018Z,12.10
2023-04-08T22:56:08.385Z,12.10
2023-04-08T22:58:35.686Z,12.10
2023-04-08T23:01:11.058Z,12.10
2023-04-08T23:03:38.262Z,12.10
2023-04-08T23:06:05.834Z,12.10
2023-04-08T23:08:33.123Z,12.10
2023-04-08T23:11:00.371Z,12.10
2023-04-08T23:13:28.241Z,12.10
2023-04-08T23:15:55.509Z,12.10
2023-04-08T23:18:22.710Z,12.10
2023-04-08T23:20:54.274Z,12.10
2023-04-08T23:23:24.131Z,12.10
2023-04-08T23:25:53.851Z,12.20
2023-04-08T23:28:22.867Z,12.20
2023-04-08T23:30:50.115Z,12.20
2023-04-08T23:33:17.419Z,12.20
2023-04-08T23:35:44.807Z,12.20
2023-04-08T23:38:12.219Z,12.20
2023-04-08T23:40:39.454Z,12.20
2023-04-08T23:43:06.603Z,12.10
2023-04-08T23:45:34.165Z,12.20
2023-04-08T23:48:01.541Z,12.20
2023-04-08T23:50:28.704Z,12.20
2023-04-08T23:52:55.963Z,12.20
2023-04-08T23:55:23.188Z,12.20
2023-04-08T23:57:50.710Z,12.20
